Google Maps JavaScript API Example
Pilot Flight Report # 94075 Submitted by : AST106 on 2020-05-26
Date: 2020-05-26Aircraft: ATR 72-500
Flight No.: Not AvailableDistance (Nm): 256.23
Departure: TGPY - Point Salines InternationalDestination: TFFR - Le Raizet
 TimeFuelWeightSpeeds  
Out (Taxi)0426Z15562 lbs91875 lbs Flight RulesIFR
Off (Takeoff)0427Z 91669 lbs149 ktsFlight LevelFL200
On (Landing)0552Z 85661 lbs125 ktsVSTD-209 ft/min
In (Ramp)0559Z8964 lbs85277 lbs ZFW76312 lbs
Flight1.40  -  1:256010 lbs  Pax0
Block1.55  -  1:336598 lbs  Cargo0
Departure WeatherTGPY 260426Z 11520KT 20SM FEW019 29/25 A2994
Destination WeatherTFFR 260559Z 15516KT 20SM SCT029 BKN034 31/22 A2994
Flight Comments